sensor_id;sensor_type;location;lat;lon;timestamp;pressure;altitude;pressure_sealevel;temperature;humidity
74529;BME280;63009;52.584;5.932;2023-10-31T00:00:00;99307.78;;;10.04;100.00
74529;BME280;63009;52.584;5.932;2023-10-31T00:02:25;99313.53;;;9.98;100.00
74529;BME280;63009;52.584;5.932;2023-10-31T00:04:51;99317.50;;;10.04;100.00
74529;BME280;63009;52.584;5.932;2023-10-31T00:07:16;99323.16;;;9.99;100.00
74529;BME280;63009;52.584;5.932;2023-10-31T00:09:41;99324.59;;;9.92;100.00
74529;BME280;63009;52.584;5.932;2023-10-31T00:12:07;99322.53;;;9.96;100.00
74529;BME280;63009;52.584;5.932;2023-10-31T00:14:32;99327.94;;;9.94;100.00
74529;BME280;63009;52.584;5.932;2023-10-31T00:16:58;99321.22;;;9.90;100.00
74529;BME280;63009;52.584;5.932;2023-10-31T00:19:24;99336.22;;;9.90;100.00
74529;BME280;63009;52.584;5.932;2023-10-31T00:21:49;99343.19;;;9.91;100.00
74529;BME280;63009;52.584;5.932;2023-10-31T00:24:14;99336.56;;;9.85;100.00
74529;BME280;63009;52.584;5.932;2023-10-31T00:26:39;99344.88;;;9.80;100.00
74529;BME280;63009;52.584;5.932;2023-10-31T00:29:05;99348.22;;;9.94;100.00
74529;BME280;63009;52.584;5.932;2023-10-31T00:31:30;99352.66;;;9.82;100.00
74529;BME280;63009;52.584;5.932;2023-10-31T00:33:55;99355.91;;;9.86;100.00
74529;BME280;63009;52.584;5.932;2023-10-31T00:36:22;99356.25;;;9.81;100.00
74529;BME280;63009;52.584;5.932;2023-10-31T00:38:47;99362.75;;;9.88;100.00
74529;BME280;63009;52.584;5.932;2023-10-31T00:41:13;99368.16;;;9.87;100.00
74529;BME280;63009;52.584;5.932;2023-10-31T00:43:38;99364.28;;;9.79;100.00
74529;BME280;63009;52.584;5.932;2023-10-31T00:46:03;99363.22;;;9.71;100.00
74529;BME280;63009;52.584;5.932;2023-10-31T00:48:29;99363.34;;;9.69;100.00
74529;BME280;63009;52.584;5.932;2023-10-31T00:50:57;99376.78;;;9.77;100.00
74529;BME280;63009;52.584;5.932;2023-10-31T00:53:22;99376.19;;;9.74;100.00
74529;BME280;63009;52.584;5.932;2023-10-31T00:55:47;99365.50;;;9.75;100.00
74529;BME280;63009;52.584;5.932;2023-10-31T00:58:12;99366.34;;;9.76;100.00
74529;BME280;63009;52.584;5.932;2023-10-31T01:00:38;99370.41;;;9.80;100.00
74529;BME280;63009;52.584;5.932;2023-10-31T01:03:03;99374.72;;;9.81;100.00
74529;BME280;63009;52.584;5.932;2023-10-31T01:05:28;99381.09;;;9.78;100.00
74529;BME280;63009;52.584;5.932;2023-10-31T01:07:54;99376.53;;;9.80;100.00
74529;BME280;63009;52.584;5.932;2023-10-31T01:10:20;99388.41;;;9.86;100.00
74529;BME280;63009;52.584;5.932;2023-10-31T01:12:45;99394.41;;;9.88;100.00
74529;BME280;63009;52.584;5.932;2023-10-31T01:15:10;99384.56;;;9.90;100.00
74529;BME280;63009;52.584;5.932;2023-10-31T01:17:36;99378.19;;;9.93;100.00
74529;BME280;63009;52.584;5.932;2023-10-31T01:20:01;99385.88;;;9.85;100.00
74529;BME280;63009;52.584;5.932;2023-10-31T01:22:26;99384.56;;;9.90;100.00
74529;BME280;63009;52.584;5.932;2023-10-31T01:24:52;99394.63;;;9.96;100.00
74529;BME280;63009;52.584;5.932;2023-10-31T01:27:17;99396.09;;;10.00;100.00
74529;BME280;63009;52.584;5.932;2023-10-31T01:29:43;99400.75;;;9.97;100.00
74529;BME280;63009;52.584;5.932;2023-10-31T01:32:08;99400.63;;;9.98;100.00
74529;BME280;63009;52.584;5.932;2023-10-31T01:34:33;99395.72;;;9.94;100.00
74529;BME280;63009;52.584;5.932;2023-10-31T01:36:58;99407.69;;;9.98;100.00
74529;BME280;63009;52.584;5.932;2023-10-31T01:39:24;99415.53;;;9.99;100.00
74529;BME280;63009;52.584;5.932;2023-10-31T01:41:49;99417.28;;;9.99;100.00
74529;BME280;63009;52.584;5.932;2023-10-31T01:44:14;99418.63;;;10.04;100.00
74529;BME280;63009;52.584;5.932;2023-10-31T01:46:40;99411.88;;;10.11;100.00
74529;BME280;63009;52.584;5.932;2023-10-31T01:49:05;99419.94;;;10.10;100.00
74529;BME280;63009;52.584;5.932;2023-10-31T01:51:30;99427.72;;;10.11;100.00
74529;BME280;63009;52.584;5.932;2023-10-31T01:53:56;99431.56;;;10.19;100.00
74529;BME280;63009;52.584;5.932;2023-10-31T01:56:22;99405.31;;;10.06;100.00
74529;BME280;63009;52.584;5.932;2023-10-31T01:58:48;99426.16;;;10.20;100.00
74529;BME280;63009;52.584;5.932;2023-10-31T02:01:14;99422.09;;;10.16;100.00
74529;BME280;63009;52.584;5.932;2023-10-31T02:03:39;99432.19;;;10.22;100.00
74529;BME280;63009;52.584;5.932;2023-10-31T02:06:07;99431.94;;;10.25;100.00
74529;BME280;63009;52.584;5.932;2023-10-31T02:08:33;99437.59;;;10.32;100.00
74529;BME280;63009;52.584;5.932;2023-10-31T02:10:58;99443.13;;;10.29;100.00
74529;BME280;63009;52.584;5.932;2023-10-31T02:13:23;99440.56;;;10.27;100.00
74529;BME280;63009;52.584;5.932;2023-10-31T02:15:49;99437.47;;;10.22;100.00
74529;BME280;63009;52.584;5.932;2023-10-31T02:18:15;99439.50;;;10.19;100.00
74529;BME280;63009;52.584;5.932;2023-10-31T02:20:40;99457.97;;;10.19;100.00
74529;BME280;63009;52.584;5.932;2023-10-31T02:23:06;99451.03;;;10.18;100.00
74529;BME280;63009;52.584;5.932;2023-10-31T02:25:32;99439.50;;;10.19;100.00
74529;BME280;63009;52.584;5.932;2023-10-31T02:27:57;99441.78;;;10.23;100.00
74529;BME280;63009;52.584;5.932;2023-10-31T02:30:23;99444.66;;;10.20;100.00
74529;BME280;63009;52.584;5.932;2023-10-31T02:32:49;99442.50;;;10.25;100.00
74529;BME280;63009;52.584;5.932;2023-10-31T02:35:16;99441.66;;;10.25;100.00
74529;BME280;63009;52.584;5.932;2023-10-31T02:37:41;99448.28;;;10.30;100.00
74529;BME280;63009;52.584;5.932;2023-10-31T02:40:07;99449.47;;;10.04;100.00
74529;BME280;63009;52.584;5.932;2023-10-31T02:42:33;99457.13;;;10.07;100.00
74529;BME280;63009;52.584;5.932;2023-10-31T02:44:58;99457.84;;;10.09;100.00
74529;BME280;63009;52.584;5.932;2023-10-31T02:47:23;99468.16;;;10.12;100.00
74529;BME280;63009;52.584;5.932;2023-10-31T02:49:49;99479.69;;;10.11;100.00
74529;BME280;63009;52.584;5.932;2023-10-31T02:52:14;99468.91;;;10.14;100.00
74529;BME280;63009;52.584;5.932;2023-10-31T02:54:39;99479.94;;;10.19;100.00
74529;BME280;63009;52.584;5.932;2023-10-31T02:57:04;99481.41;;;10.23;100.00
74529;BME280;63009;52.584;5.932;2023-10-31T02:59:30;99475.50;;;10.20;100.00
74529;BME280;63009;52.584;5.932;2023-10-31T03:01:56;99485.00;;;10.22;100.00
74529;BME280;63009;52.584;5.932;2023-10-31T03:04:21;99485.47;;;10.27;100.00
74529;BME280;63009;52.584;5.932;2023-10-31T03:06:46;99483.66;;;10.17;100.00
74529;BME280;63009;52.584;5.932;2023-10-31T03:09:12;99487.97;;;10.18;100.00
74529;BME280;63009;52.584;5.932;2023-10-31T03:11:37;99483.53;;;10.18;100.00
74529;BME280;63009;52.584;5.932;2023-10-31T03:14:02;99493.13;;;10.19;100.00
74529;BME280;63009;52.584;5.932;2023-10-31T03:16:28;99499.63;;;10.15;100.00
74529;BME280;63009;52.584;5.932;2023-10-31T03:18:53;99501.53;;;10.13;100.00
74529;BME280;63009;52.584;5.932;2023-10-31T03:21:18;99506.59;;;10.16;100.00
74529;BME280;63009;52.584;5.932;2023-10-31T03:23:48;99506.34;;;10.19;100.00
74529;BME280;63009;52.584;5.932;2023-10-31T03:26:15;99501.81;;;10.21;100.00
74529;BME280;63009;52.584;5.932;2023-10-31T03:28:40;99504.91;;;10.15;100.00
74529;BME280;63009;52.584;5.932;2023-10-31T03:31:06;99515.47;;;10.26;100.00
74529;BME280;63009;52.584;5.932;2023-10-31T03:33:31;99516.09;;;10.30;100.00
74529;BME280;63009;52.584;5.932;2023-10-31T03:35:57;99523.19;;;10.29;100.00
74529;BME280;63009;52.584;5.932;2023-10-31T03:38:22;99524.75;;;10.32;100.00
74529;BME280;63009;52.584;5.932;2023-10-31T03:40:47;99523.25;;;10.17;100.00
74529;BME280;63009;52.584;5.932;2023-10-31T03:43:13;99529.13;;;10.09;100.00
74529;BME280;63009;52.584;5.932;2023-10-31T03:45:38;99536.31;;;10.07;100.00
74529;BME280;63009;52.584;5.932;2023-10-31T03:48:03;99545.69;;;10.11;100.00
74529;BME280;63009;52.584;5.932;2023-10-31T03:50:29;99549.91;;;10.14;100.00
74529;BME280;63009;52.584;5.932;2023-10-31T03:52:54;99545.56;;;10.12;100.00
74529;BME280;63009;52.584;5.932;2023-10-31T03:55:19;99559.59;;;10.13;100.00
74529;BME280;63009;52.584;5.932;2023-10-31T03:57:45;99558.16;;;10.09;100.00
74529;BME280;63009;52.584;5.932;2023-10-31T04:00:10;99548.69;;;10.06;100.00
74529;BME280;63009;52.584;5.932;2023-10-31T04:02:36;99560.81;;;10.09;100.00
74529;BME280;63009;52.584;5.932;2023-10-31T04:05:02;99560.69;;;10.10;100.00
74529;BME280;63009;52.584;5.932;2023-10-31T04:07:27;99563.81;;;10.04;100.00
74529;BME280;63009;52.584;5.932;2023-10-31T04:09:53;99568.84;;;10.07;100.00
74529;BME280;63009;52.584;5.932;2023-10-31T04:12:19;99572.09;;;10.11;100.00
74529;BME280;63009;52.584;5.932;2023-10-31T04:14:44;99570.91;;;10.15;100.00
74529;BME280;63009;52.584;5.932;2023-10-31T04:17:09;99563.94;;;10.14;100.00
74529;BME280;63009;52.584;5.932;2023-10-31T04:19:36;99561.53;;;10.11;100.00
74529;BME280;63009;52.584;5.932;2023-10-31T04:22:01;99568.16;;;10.17;100.00
74529;BME280;63009;52.584;5.932;2023-10-31T04:24:27;99584.59;;;10.20;100.00
74529;BME280;63009;52.584;5.932;2023-10-31T04:26:52;99583.88;;;10.18;100.00
74529;BME280;63009;52.584;5.932;2023-10-31T04:29:18;99585.78;;;10.16;100.00
74529;BME280;63009;52.584;5.932;2023-10-31T04:31:43;99591.59;;;10.21;100.00
74529;BME280;63009;52.584;5.932;2023-10-31T04:34:08;99597.25;;;10.28;100.00
74529;BME280;63009;52.584;5.932;2023-10-31T04:36:33;99590.63;;;10.22;100.00
74529;BME280;63009;52.584;5.932;2023-10-31T04:38:59;99591.59;;;10.21;100.00
74529;BME280;63009;52.584;5.932;2023-10-31T04:41:24;99585.34;;;10.22;100.00
74529;BME280;63009;52.584;5.932;2023-10-31T04:43:49;99593.84;;;10.15;100.00
74529;BME280;63009;52.584;5.932;2023-10-31T04:46:15;99583.56;;;9.99;100.00
74529;BME280;63009;52.584;5.932;2023-10-31T04:48:40;99591.41;;;10.00;100.00
74529;BME280;63009;52.584;5.932;2023-10-31T04:51:05;99602.06;;;9.99;100.00
74529;BME280;63009;52.584;5.932;2023-10-31T04:53:31;99596.88;;;9.97;100.00
74529;BME280;63009;52.584;5.932;2023-10-31T04:55:58;99596.69;;;10.00;100.00
74529;BME280;63009;52.584;5.932;2023-10-31T04:58:23;99592.38;;;9.99;100.00
74529;BME280;63009;52.584;5.932;2023-10-31T05:00:49;99605.66;;;9.98;100.00
74529;BME280;63009;52.584;5.932;2023-10-31T05:03:14;99605.88;;;9.95;100.00
74529;BME280;63009;52.584;5.932;2023-10-31T05:05:39;99600.72;;;9.93;100.00
74529;BME280;63009;52.584;5.932;2023-10-31T05:08:04;99610.56;;;9.91;100.00
74529;BME280;63009;52.584;5.932;2023-10-31T05:10:30;99611.16;;;9.95;100.00
74529;BME280;63009;52.584;5.932;2023-10-31T05:12:55;99599.66;;;9.96;100.00
74529;BME280;63009;52.584;5.932;2023-10-31T05:15:22;99605.88;;;9.95;100.00
74529;BME280;63009;52.584;5.932;2023-10-31T05:17:47;99602.03;;;9.88;100.00
74529;BME280;63009;52.584;5.932;2023-10-31T05:20:12;99608.16;;;9.88;100.00
74529;BME280;63009;52.584;5.932;2023-10-31T05:22:38;99612.38;;;9.91;100.00
74529;BME280;63009;52.584;5.932;2023-10-31T05:25:05;99606.13;;;9.92;100.00
74529;BME280;63009;52.584;5.932;2023-10-31T05:27:31;99608.03;;;9.90;100.00
74529;BME280;63009;52.584;5.932;2023-10-31T05:29:56;99614.28;;;9.89;100.00
74529;BME280;63009;52.584;5.932;2023-10-31T05:32:21;99616.19;;;9.87;100.00
74529;BME280;63009;52.584;5.932;2023-10-31T05:34:47;99608.59;;;9.82;100.00
74529;BME280;63009;52.584;5.932;2023-10-31T05:37:12;99623.03;;;9.89;100.00
74529;BME280;63009;52.584;5.932;2023-10-31T05:39:37;99619.78;;;9.86;100.00
74529;BME280;63009;52.584;5.932;2023-10-31T05:42:03;99625.50;;;9.79;100.00
74529;BME280;63009;52.584;5.932;2023-10-31T05:44:28;99620.63;;;9.86;100.00
74529;BME280;63009;52.584;5.932;2023-10-31T05:46:53;99610.41;;;9.81;100.00
74529;BME280;63009;52.584;5.932;2023-10-31T05:49:19;99626.84;;;9.85;100.00
74529;BME280;63009;52.584;5.932;2023-10-31T05:51:44;99628.63;;;9.85;100.00
74529;BME280;63009;52.584;5.932;2023-10-31T05:54:09;99622.31;;;9.87;100.00
74529;BME280;63009;52.584;5.932;2023-10-31T05:56:35;99641.41;;;9.91;100.00
74529;BME280;63009;52.584;5.932;2023-10-31T05:59:00;99635.75;;;9.95;100.00
74529;BME280;63009;52.584;5.932;2023-10-31T06:01:25;99638.75;;;9.91;100.00
74529;BME280;63009;52.584;5.932;2023-10-31T06:03:51;99651.28;;;10.00;100.00
74529;BME280;63009;52.584;5.932;2023-10-31T06:06:16;99646.72;;;10.02;100.00
74529;BME280;63009;52.584;5.932;2023-10-31T06:08:41;99652.84;;;10.02;100.00
74529;BME280;63009;52.584;5.932;2023-10-31T06:11:07;99658.34;;;9.99;100.00
74529;BME280;63009;52.584;5.932;2023-10-31T06:13:33;99653.41;;;9.95;100.00
74529;BME280;63009;52.584;5.932;2023-10-31T06:16:00;99662.03;;;9.97;100.00
74529;BME280;63009;52.584;5.932;2023-10-31T06:18:26;99652.44;;;9.96;100.00
74529;BME280;63009;52.584;5.932;2023-10-31T06:20:52;99671.53;;;9.99;100.00
74529;BME280;63009;52.584;5.932;2023-10-31T06:23:17;99667.72;;;10.03;100.00
74529;BME280;63009;52.584;5.932;2023-10-31T06:25:42;99663.88;;;10.07;100.00
74529;BME280;63009;52.584;5.932;2023-10-31T06:28:08;99668.94;;;10.10;100.00
74529;BME280;63009;52.584;5.932;2023-10-31T06:30:33;99670.25;;;10.05;100.00
74529;BME280;63009;52.584;5.932;2023-10-31T06:32:59;99681.53;;;10.07;100.00
74529;BME280;63009;52.584;5.932;2023-10-31T06:35:25;99681.63;;;10.05;100.00
74529;BME280;63009;52.584;5.932;2023-10-31T06:37:51;99683.31;;;10.06;100.00
74529;BME280;63009;52.584;5.932;2023-10-31T06:40:17;99689.69;;;10.04;100.00
74529;BME280;63009;52.584;5.932;2023-10-31T06:42:42;99685.22;;;10.04;100.00
74529;BME280;63009;52.584;5.932;2023-10-31T06:45:08;99682.00;;;10.12;100.00
74529;BME280;63009;52.584;5.932;2023-10-31T06:47:33;99696.28;;;10.09;100.00
74529;BME280;63009;52.584;5.932;2023-10-31T06:49:58;99697.00;;;10.11;100.00
74529;BME280;63009;52.584;5.932;2023-10-31T06:52:23;99689.09;;;10.11;100.00
74529;BME280;63009;52.584;5.932;2023-10-31T06:54:49;99700.47;;;10.12;100.00
74529;BME280;63009;52.584;5.932;2023-10-31T06:57:14;99706.59;;;10.12;100.00
74529;BME280;63009;52.584;5.932;2023-10-31T06:59:41;99705.44;;;10.17;100.00
74529;BME280;63009;52.584;5.932;2023-10-31T07:02:06;99708.94;;;10.17;100.00
74529;BME280;63009;52.584;5.932;2023-10-31T07:04:32;99715.44;;;10.24;100.00
74529;BME280;63009;52.584;5.932;2023-10-31T07:06:57;99717.84;;;10.27;100.00
74529;BME280;63009;52.584;5.932;2023-10-31T07:09:23;99723.88;;;10.29;100.00
74529;BME280;63009;52.584;5.932;2023-10-31T07:11:49;99725.31;;;10.33;100.00
74529;BME280;63009;52.584;5.932;2023-10-31T07:14:14;99725.94;;;10.37;100.00
74529;BME280;63009;52.584;5.932;2023-10-31T07:16:39;99728.25;;;10.42;100.00
74529;BME280;63009;52.584;5.932;2023-10-31T07:19:05;99725.09;;;10.36;100.00
74529;BME280;63009;52.584;5.932;2023-10-31T07:21:30;99732.28;;;10.34;100.00
74529;BME280;63009;52.584;5.932;2023-10-31T07:23:55;99739.53;;;10.44;100.00
74529;BME280;63009;52.584;5.932;2023-10-31T07:26:21;99739.78;;;10.52;100.00
74529;BME280;63009;52.584;5.932;2023-10-31T07:28:47;99750.25;;;10.64;100.00
74529;BME280;63009;52.584;5.932;2023-10-31T07:31:14;99756.53;;;10.75;100.00
74529;BME280;63009;52.584;5.932;2023-10-31T07:33:39;99754.63;;;10.77;100.00
74529;BME280;63009;52.584;5.932;2023-10-31T07:36:04;99759.53;;;10.70;100.00
74529;BME280;63009;52.584;5.932;2023-10-31T07:38:30;99760.72;;;10.66;100.00
74529;BME280;63009;52.584;5.932;2023-10-31T07:40:55;99757.84;;;10.69;100.00
74529;BME280;63009;52.584;5.932;2023-10-31T07:43:20;99768.56;;;10.79;100.00
74529;BME280;63009;52.584;5.932;2023-10-31T07:45:46;99756.31;;;10.78;100.00
74529;BME280;63009;52.584;5.932;2023-10-31T07:48:12;99767.72;;;10.78;100.00
74529;BME280;63009;52.584;5.932;2023-10-31T07:50:37;99773.75;;;10.91;100.00
74529;BME280;63009;52.584;5.932;2023-10-31T07:53:02;99777.34;;;10.90;100.00
74529;BME280;63009;52.584;5.932;2023-10-31T07:55:28;99783.34;;;10.92;100.00
74529;BME280;63009;52.584;5.932;2023-10-31T07:57:53;99791.91;;;11.07;100.00
74529;BME280;63009;52.584;5.932;2023-10-31T08:00:19;99791.69;;;11.21;100.00
74529;BME280;63009;52.584;5.932;2023-10-31T08:02:44;99805.63;;;11.23;100.00
74529;BME280;63009;52.584;5.932;2023-10-31T08:05:10;99788.81;;;11.13;100.00
74529;BME280;63009;52.584;5.932;2023-10-31T08:07:35;99803.72;;;11.14;100.00
74529;BME280;63009;52.584;5.932;2023-10-31T08:10:01;99812.97;;;11.20;100.00
74529;BME280;63009;52.584;5.932;2023-10-31T08:12:26;99804.44;;;11.16;100.00
74529;BME280;63009;52.584;5.932;2023-10-31T08:14:51;99810.69;;;11.15;100.00
74529;BME280;63009;52.584;5.932;2023-10-31T08:17:17;99809.94;;;11.02;100.00
74529;BME280;63009;52.584;5.932;2023-10-31T08:19:42;99812.59;;;11.02;100.00
74529;BME280;63009;52.584;5.932;2023-10-31T08:22:07;99816.78;;;11.05;100.00
74529;BME280;63009;52.584;5.932;2023-10-31T08:24:33;99806.22;;;11.16;100.00
74529;BME280;63009;52.584;5.932;2023-10-31T08:27:01;99808.28;;;11.35;100.00
74529;BME280;63009;52.584;5.932;2023-10-31T08:29:29;99818.63;;;11.60;100.00
74529;BME280;63009;52.584;5.932;2023-10-31T08:31:54;99820.22;;;11.85;100.00
74529;BME280;63009;52.584;5.932;2023-10-31T08:34:19;99826.41;;;12.06;100.00
74529;BME280;63009;52.584;5.932;2023-10-31T08:36:44;99833.03;;;12.12;100.00
74529;BME280;63009;52.584;5.932;2023-10-31T08:39:10;99827.34;;;12.16;100.00
74529;BME280;63009;52.584;5.932;2023-10-31T08:41:35;99835.53;;;12.25;100.00
74529;BME280;63009;52.584;5.932;2023-10-31T08:44:02;99839.19;;;12.44;100.00
74529;BME280;63009;52.584;5.932;2023-10-31T08:46:28;99840.25;;;12.53;100.00
74529;BME280;63009;52.584;5.932;2023-10-31T08:48:54;99838.44;;;12.54;100.00
74529;BME280;63009;52.584;5.932;2023-10-31T08:51:19;99842.66;;;12.56;100.00
74529;BME280;63009;52.584;5.932;2023-10-31T08:53:44;99860.06;;;12.70;100.00
74529;BME280;63009;52.584;5.932;2023-10-31T08:56:10;99850.13;;;12.83;100.00
74529;BME280;63009;52.584;5.932;2023-10-31T08:58:35;99859.59;;;12.97;100.00
74529;BME280;63009;52.584;5.932;2023-10-31T09:01:03;99869.34;;;13.17;100.00
74529;BME280;63009;52.584;5.932;2023-10-31T09:03:28;99866.59;;;13.40;100.00
74529;BME280;63009;52.584;5.932;2023-10-31T09:05:54;99857.31;;;13.55;100.00
74529;BME280;63009;52.584;5.932;2023-10-31T09:08:19;99867.84;;;13.66;100.00
74529;BME280;63009;52.584;5.932;2023-10-31T09:10:44;99872.50;;;13.83;100.00
74529;BME280;63009;52.584;5.932;2023-10-31T09:13:11;99878.06;;;14.11;100.00
74529;BME280;63009;52.584;5.932;2023-10-31T09:15:37;99877.97;;;14.22;100.00
74529;BME280;63009;52.584;5.932;2023-10-31T09:18:02;99883.16;;;14.43;100.00
74529;BME280;63009;52.584;5.932;2023-10-31T09:20:27;99890.75;;;14.57;100.00
74529;BME280;63009;52.584;5.932;2023-10-31T09:22:54;99886.00;;;14.61;100.00
74529;BME280;63009;52.584;5.932;2023-10-31T09:25:20;99894.13;;;14.59;100.00
74529;BME280;63009;52.584;5.932;2023-10-31T09:27:45;99890.34;;;14.71;100.00
74529;BME280;63009;52.584;5.932;2023-10-31T09:30:10;99910.66;;;14.82;100.00
74529;BME280;63009;52.584;5.932;2023-10-31T09:32:36;99914.59;;;15.07;100.00
74529;BME280;63009;52.584;5.932;2023-10-31T09:35:01;99913.19;;;15.22;100.00
74529;BME280;63009;52.584;5.932;2023-10-31T09:37:27;99910.22;;;15.25;100.00
74529;BME280;63009;52.584;5.932;2023-10-31T09:39:52;99924.94;;;15.29;100.00
74529;BME280;63009;52.584;5.932;2023-10-31T09:42:17;99917.75;;;15.49;100.00
74529;BME280;63009;52.584;5.932;2023-10-31T09:44:43;99914.78;;;15.62;100.00
74529;BME280;63009;52.584;5.932;2023-10-31T09:47:09;99934.56;;;15.69;100.00
74529;BME280;63009;52.584;5.932;2023-10-31T09:49:35;99934.25;;;15.82;100.00
74529;BME280;63009;52.584;5.932;2023-10-31T09:52:01;99946.88;;;15.80;100.00
74529;BME280;63009;52.584;5.932;2023-10-31T09:54:26;99942.34;;;15.90;100.00
74529;BME280;63009;52.584;5.932;2023-10-31T09:56:52;99946.81;;;15.89;100.00
74529;BME280;63009;52.584;5.932;2023-10-31T09:59:17;99951.75;;;15.84;98.87
74529;BME280;63009;52.584;5.932;2023-10-31T10:01:43;99956.84;;;15.78;97.80
74529;BME280;63009;52.584;5.932;2023-10-31T10:04:09;99962.72;;;15.71;99.30
74529;BME280;63009;52.584;5.932;2023-10-31T10:06:34;99974.75;;;15.76;97.88
74529;BME280;63009;52.584;5.932;2023-10-31T10:09:00;99974.66;;;15.67;97.18
74529;BME280;63009;52.584;5.932;2023-10-31T10:11:29;99975.91;;;15.54;97.94
74529;BME280;63009;52.584;5.932;2023-10-31T10:13:54;99987.00;;;15.30;99.08
74529;BME280;63009;52.584;5.932;2023-10-31T10:16:31;99989.41;;;15.23;100.00
74529;BME280;63009;52.584;5.932;2023-10-31T10:18:57;100005.38;;;15.23;99.01
74529;BME280;63009;52.584;5.932;2023-10-31T10:21:23;99994.69;;;15.04;100.00
74529;BME280;63009;52.584;5.932;2023-10-31T10:23:51;99990.38;;;14.93;100.00
74529;BME280;63009;52.584;5.932;2023-10-31T10:26:17;99997.63;;;14.91;100.00
74529;BME280;63009;52.584;5.932;2023-10-31T10:28:46;99988.09;;;14.89;100.00
74529;BME280;63009;52.584;5.932;2023-10-31T10:31:14;99995.25;;;14.78;100.00
74529;BME280;63009;52.584;5.932;2023-10-31T10:33:40;99986.13;;;14.81;100.00
74529;BME280;63009;52.584;5.932;2023-10-31T10:36:07;100000.88;;;14.95;100.00
74529;BME280;63009;52.584;5.932;2023-10-31T10:38:35;99996.38;;;15.05;100.00
74529;BME280;63009;52.584;5.932;2023-10-31T10:41:01;100011.69;;;15.22;97.92
74529;BME280;63009;52.584;5.932;2023-10-31T10:43:28;100004.25;;;15.35;98.83
74529;BME280;63009;52.584;5.932;2023-10-31T10:45:58;100001.84;;;15.42;97.93
74529;BME280;63009;52.584;5.932;2023-10-31T10:48:27;100004.38;;;15.53;96.14
74529;BME280;63009;52.584;5.932;2023-10-31T10:51:05;100005.34;;;15.62;95.03
74529;BME280;63009;52.584;5.932;2023-10-31T10:53:44;99997.09;;;15.65;93.80
74529;BME280;63009;52.584;5.932;2023-10-31T10:56:19;100008.91;;;15.62;93.35
74529;BME280;63009;52.584;5.932;2023-10-31T10:59:03;100015.72;;;15.84;92.56
74529;BME280;63009;52.584;5.932;2023-10-31T11:01:30;100001.69;;;15.72;92.72
74529;BME280;63009;52.584;5.932;2023-10-31T11:03:56;100013.31;;;15.91;94.10
74529;BME280;63009;52.584;5.932;2023-10-31T11:06:23;100013.47;;;15.80;90.29
74529;BME280;63009;52.584;5.932;2023-10-31T11:08:49;100012.78;;;15.68;91.48
74529;BME280;63009;52.584;5.932;2023-10-31T11:11:15;100009.00;;;15.80;91.79
74529;BME280;63009;52.584;5.932;2023-10-31T11:13:43;100017.69;;;15.82;92.63
74529;BME280;63009;52.584;5.932;2023-10-31T11:18:56;100028.03;;;15.47;90.88
74529;BME280;63009;52.584;5.932;2023-10-31T11:21:22;100029.44;;;15.31;92.68
74529;BME280;63009;52.584;5.932;2023-10-31T11:23:57;100025.25;;;15.09;93.50
74529;BME280;63009;52.584;5.932;2023-10-31T11:26:25;100037.00;;;14.97;94.23
74529;BME280;63009;52.584;5.932;2023-10-31T11:28:51;100046.66;;;14.98;96.05
74529;BME280;63009;52.584;5.932;2023-10-31T11:31:16;100039.22;;;14.92;98.11
74529;BME280;63009;52.584;5.932;2023-10-31T11:33:41;100036.84;;;14.99;97.73
74529;BME280;63009;52.584;5.932;2023-10-31T11:36:10;100041.72;;;14.84;96.90
74529;BME280;63009;52.584;5.932;2023-10-31T11:38:37;100044.97;;;14.97;97.08
74529;BME280;63009;52.584;5.932;2023-10-31T11:41:04;100044.38;;;14.84;95.83
74529;BME280;63009;52.584;5.932;2023-10-31T11:43:50;100055.03;;;14.84;95.13
74529;BME280;63009;52.584;5.932;2023-10-31T11:46:22;100050.78;;;14.72;95.14
74529;BME280;63009;52.584;5.932;2023-10-31T11:48:54;100053.53;;;14.61;96.47
74529;BME280;63009;52.584;5.932;2023-10-31T11:51:23;100054.84;;;14.66;96.61
74529;BME280;63009;52.584;5.932;2023-10-31T11:53:49;100052.84;;;14.59;95.74
74529;BME280;63009;52.584;5.932;2023-10-31T11:56:15;100062.91;;;14.55;96.06
74529;BME280;63009;52.584;5.932;2023-10-31T11:58:41;100062.22;;;14.32;96.94
74529;BME280;63009;52.584;5.932;2023-10-31T12:01:08;100058.06;;;14.39;97.70
74529;BME280;63009;52.584;5.932;2023-10-31T12:03:40;100051.63;;;14.42;98.08
74529;BME280;63009;52.584;5.932;2023-10-31T12:06:07;100057.69;;;14.44;98.26
74529;BME280;63009;52.584;5.932;2023-10-31T12:08:35;100069.66;;;14.38;97.36
74529;BME280;63009;52.584;5.932;2023-10-31T12:13:35;100065.00;;;14.31;97.32
74529;BME280;63009;52.584;5.932;2023-10-31T12:16:00;100071.28;;;14.30;98.48
74529;BME280;63009;52.584;5.932;2023-10-31T12:18:29;100075.13;;;14.37;98.43
74529;BME280;63009;52.584;5.932;2023-10-31T12:20:55;100071.69;;;14.25;98.30
74529;BME280;63009;52.584;5.932;2023-10-31T12:23:20;100076.19;;;14.34;99.67
74529;BME280;63009;52.584;5.932;2023-10-31T12:25:50;100082.13;;;14.38;100.00
74529;BME280;63009;52.584;5.932;2023-10-31T12:28:19;100075.97;;;14.37;100.00
74529;BME280;63009;52.584;5.932;2023-10-31T12:30:49;100081.72;;;14.42;100.00
74529;BME280;63009;52.584;5.932;2023-10-31T12:33:16;100086.06;;;14.43;100.00
74529;BME280;63009;52.584;5.932;2023-10-31T12:35:42;100080.50;;;14.46;99.28
74529;BME280;63009;52.584;5.932;2023-10-31T12:38:10;100090.53;;;14.43;99.70
74529;BME280;63009;52.584;5.932;2023-10-31T12:40:35;100091.25;;;14.45;99.52
74529;BME280;63009;52.584;5.932;2023-10-31T12:43:01;100071.16;;;14.31;99.60
74529;BME280;63009;52.584;5.932;2023-10-31T12:45:28;100087.09;;;14.31;100.00
74529;BME280;63009;52.584;5.932;2023-10-31T12:48:05;100076.75;;;14.28;99.03
74529;BME280;63009;52.584;5.932;2023-10-31T12:50:32;100092.63;;;14.39;99.88